KDAY

Dayton International Airport

Airport
ICAO code
KDAY
Summary
ICAO Region
NAM
ICAO Territory
Location

Dayton, Ohio,

Elevation
1009 ft
Coordinates
39° 54' 8" N , 84° 13' 9" W
KCC
Dfa
Airport LOS
Parallel Runway Operation
Airport WX
Cumulonimbus
Metar
Observation
KDAY 081956Z 23013KT 10SM SCT038 BKN046 BKN060 31/23 A2999 RMK AO2 CIG 037 RWY 6L SLP146 MDT CU N-S T03110228
Station
Dayton, Cox Dayton International Airport
Date/Time
2022-08-08 19:56:00
Wind direction
230°
Wind speed
13 kts
Lowest cloud amount
scattered clouds
Temperature
31.1°C
Dew point
22.8°C
Humidity
61%
Weather condition
n/a

Description

International airport serving Dayton, Ohio. A public airport located 14 km north of the central business district of Dayton, a city in Montgomery County, Ohio, United States. Also referred to as simply Dayton International Airport.

Climatology

Humid continental climate (Köppen climate classification Dfa) - characterized by four seasons: cold, windy, snowy winters, mild springs, hot, humid summers, and crisp and relatively short autumns. Precipitation reaches its lowest in January and February and peaks in summer and latter half of spring.

Airport map

Aerial View

Airport accidents

SKYbrary Partners:

Safety knowledge contributed by: